Time;durP1;ratioP1;P1;durP2;ratioP2;P2;SDS_P1;SDS_P2;PMS_P1;PMS_P2;Temp;Humidity;BMP_temperature;BMP_pressure;BME280_temperature;BME280_humidity;BME280_pressure;Samples;Min_cycle;Max_cycle;Signal;HPM_P1;HPM_P2
2023/12/25 00:02:39;;;;;;;1.60;1.50;;;;;;;-1.31;77.04;94872.59;6100986;29;20060;-67
2023/12/25 00:05:43;;;;;;;2.05;1.10;;;;;;;-1.41;77.40;94870.50;6101106;29;20544;-68
2023/12/25 00:08:48;;;;;;;2.58;1.23;;;;;;;-1.24;77.56;94871.41;6101080;29;20097;-67
2023/12/25 00:11:52;;;;;;;2.45;1.85;;;;;;;-1.12;76.75;94878.50;6100667;29;20056;-68
2023/12/25 00:14:59;;;;;;;2.47;2.03;;;;;;;-1.08;77.03;94897.25;6100032;29;20203;-68
2023/12/25 00:18:03;;;;;;;2.72;2.17;;;;;;;-1.18;77.16;94891.72;6100179;29;20060;-68
2023/12/25 00:21:05;;;;;;;2.20;1.98;;;;;;;-1.07;77.29;94917.84;6100305;29;20550;-68
2023/12/25 00:24:06;;;;;;;1.65;1.55;;;;;;;-0.93;76.06;94923.13;6099928;29;20434;-68
2023/12/25 00:27:08;;;;;;;2.15;1.83;;;;;;;-0.97;76.49;94924.19;6099806;29;20047;-68
2023/12/25 00:30:12;;;;;;;3.92;2.13;;;;;;;-0.91;75.78;94925.63;6100392;29;20502;-67
2023/12/25 00:33:18;;;;;;;1.85;1.73;;;;;;;-1.00;76.25;94934.66;6100328;29;20103;-68
2023/12/25 00:36:20;;;;;;;;;;;;;;;-0.83;76.36;94943.31;6099137;29;20087;-67
2023/12/25 00:39:23;;;;;;;4.10;1.92;;;;;;;-0.86;75.61;94951.22;6099968;29;20017;-68
2023/12/25 00:42:30;;;;;;;3.80;3.30;;;;;;;-0.86;75.88;94966.69;6099507;29;20058;-68
2023/12/25 00:45:31;;;;;;;3.35;2.45;;;;;;;-0.91;76.13;94970.38;6100049;29;20165;-67
2023/12/25 00:48:40;;;;;;;2.90;1.85;;;;;;;-0.82;75.72;94999.19;6099299;29;20052;-69
2023/12/25 00:51:44;;;;;;;2.58;1.98;;;;;;;-0.81;75.15;95012.03;6100146;29;20457;-68
2023/12/25 00:54:54;;;;;;;5.75;2.80;;;;;;;-0.99;75.67;95018.97;6100172;29;20056;-69
2023/12/25 00:57:55;;;;;;;6.05;3.60;;;;;;;-0.97;75.95;95030.03;6099507;29;20056;-68
2023/12/25 01:01:03;;;;;;;2.88;2.67;;;;;;;-0.92;76.03;95040.97;6099989;29;20048;-68
2023/12/25 01:04:09;;;;;;;2.33;2.03;;;;;;;-0.92;75.94;95048.72;6098852;29;20051;-68
2023/12/25 01:07:13;;;;;;;5.07;3.53;;;;;;;-1.08;76.19;95065.84;6082956;29;20056;-68
2023/12/25 01:10:15;;;;;;;6.22;3.92;;;;;;;-1.17;77.10;95061.13;6099417;29;20052;-68
2023/12/25 01:13:19;;;;;;;3.67;2.75;;;;;;;-1.19;77.47;95055.19;6099602;29;20430;-68
2023/12/25 01:16:24;;;;;;;5.88;3.65;;;;;;;-1.22;77.74;95068.25;6099714;29;20052;-69
2023/12/25 01:19:25;;;;;;;5.15;3.50;;;;;;;-1.27;78.04;95085.72;6098945;29;20054;-68
2023/12/25 01:22:26;;;;;;;5.15;3.63;;;;;;;-1.30;77.60;95106.47;6099187;29;20048;-69
2023/12/25 01:25:28;;;;;;;3.92;3.20;;;;;;;-1.15;77.63;95116.09;6099315;29;20063;-68
2023/12/25 01:28:30;;;;;;;4.95;3.63;;;;;;;-1.01;77.23;95108.53;6098990;29;20060;-68
2023/12/25 01:31:35;;;;;;;3.88;2.15;;;;;;;-0.89;75.87;95111.44;6099035;29;20044;-67
2023/12/25 01:34:37;;;;;;;4.40;2.92;;;;;;;-0.92;76.06;95128.75;6098810;29;20067;-69
2023/12/25 01:37:43;;;;;;;4.65;3.33;;;;;;;-1.08;76.84;95126.97;6099381;29;20063;-68
2023/12/25 01:40:50;;;;;;;3.97;3.38;;;;;;;-1.10;76.39;95129.63;6099181;29;20048;-68
2023/12/25 01:43:57;;;;;;;4.07;2.97;;;;;;;-1.04;76.36;95113.03;6098991;29;20044;-68
2023/12/25 01:46:59;;;;;;;3.45;2.90;;;;;;;-0.99;75.63;95117.06;6100317;29;20058;-68
2023/12/25 01:50:06;;;;;;;1.00;0.93;;;;;;;-0.91;75.09;95099.47;6103660;29;20415;-69
2023/12/25 01:53:13;;;;;;;3.40;2.55;;;;;;;-1.05;75.65;95094.09;6086535;29;20048;-68
2023/12/25 01:56:17;;;;;;;2.70;2.40;;;;;;;-1.05;75.61;95099.25;6087150;29;20044;-69
2023/12/25 01:59:21;;;;;;;3.80;2.47;;;;;;;-1.14;75.63;95113.44;6103779;29;20469;-68
2023/12/25 02:02:27;;;;;;;2.65;1.65;;;;;;;-1.07;75.26;95108.84;6078439;29;20537;-67
2023/12/25 02:05:31;;;;;;;1.08;0.93;;;;;;;-1.05;74.27;95112.16;6079190;29;20056;-68
2023/12/25 02:08:35;;;;;;;2.45;1.33;;;;;;;-1.23;74.83;95100.97;6079899;29;20059;-68
2023/12/25 02:11:40;;;;;;;1.25;0.95;;;;;;;-1.25;74.90;95120.00;6080077;29;20546;-68
2023/12/25 02:14:45;;;;;;;3.33;1.85;;;;;;;-1.47;75.57;95096.94;6078020;29;20064;-68
2023/12/25 02:17:47;;;;;;;2.75;1.70;;;;;;;-1.43;75.48;95111.38;6078322;29;20506;-68
2023/12/25 02:20:48;;;;;;;4.90;1.75;;;;;;;-1.41;75.54;95120.72;6080108;29;20071;-69
2023/12/25 02:23:58;;;;;;;1.48;1.38;;;;;;;-1.43;75.97;95117.38;6079755;29;20055;-69
2023/12/25 02:27:03;;;;;;;2.53;1.27;;;;;;;-1.43;75.36;95116.53;6079728;29;20207;-68
2023/12/25 02:30:07;;;;;;;1.30;1.15;;;;;;;-1.31;74.93;95115.13;6079494;29;20048;-68
2023/12/25 02:33:13;;;;;;;1.38;0.80;;;;;;;-1.28;74.70;95115.00;6079763;29;20040;-68
2023/12/25 02:36:15;;;;;;;1.73;1.25;;;;;;;-1.38;74.41;95125.75;6079148;29;20056;-69
2023/12/25 02:39:20;;;;;;;1.10;1.00;;;;;;;-1.43;74.38;95162.97;6079273;29;20045;-68
2023/12/25 02:42:21;;;;;;;1.15;0.95;;;;;;;-1.51;73.71;95160.75;6078782;29;20056;-68
2023/12/25 02:45:25;;;;;;;1.15;0.93;;;;;;;-1.55;74.47;95176.44;6079087;29;20044;-68
2023/12/25 02:48:26;;;;;;;1.27;0.75;;;;;;;-1.75;74.21;95177.31;6079173;29;20053;-69
2023/12/25 02:51:34;;;;;;;1.30;1.20;;;;;;;-1.76;74.24;95178.19;6079755;29;20036;-68
2023/12/25 02:54:40;;;;;;;0.68;0.68;;;;;;;-1.72;74.07;95182.34;6079372;29;20510;-67
2023/12/25 02:57:44;;;;;;;0.93;0.73;;;;;;;-1.78;74.48;95173.13;6077414;29;20059;-68
2023/12/25 03:00:50;;;;;;;0.63;0.55;;;;;;;-1.75;74.23;95200.53;6079593;29;20426;-68
2023/12/25 03:03:52;;;;;;;1.55;0.90;;;;;;;-1.84;74.29;95196.56;6085177;29;20418;-68
2023/12/25 03:06:53;;;;;;;1.35;1.25;;;;;;;-1.92;74.17;95181.47;6069385;29;20063;-68
2023/12/25 03:09:56;;;;;;;1.15;0.95;;;;;;;-2.09;75.09;95183.91;6101974;29;20047;-68
2023/12/25 03:13:00;;;;;;;0.68;0.60;;;;;;;-2.04;75.77;95211.19;6101499;29;20505;-68
2023/12/25 03:16:08;;;;;;;1.85;1.45;;;;;;;-2.38;76.02;95216.84;6102045;29;20040;-68
2023/12/25 03:19:10;;;;;;;1.65;1.10;;;;;;;-2.37;76.54;95215.97;6101030;29;20142;-68
2023/12/25 03:22:11;;;;;;;1.45;1.05;;;;;;;-2.51;76.71;95237.13;6100779;29;20168;-68
2023/12/25 03:25:13;;;;;;;1.20;0.70;;;;;;;-2.43;76.74;95241.16;6101157;29;20402;-69
2023/12/25 03:28:14;;;;;;;1.15;0.88;;;;;;;-2.36;75.46;95245.16;6100664;29;20048;-67
2023/12/25 03:31:18;;;;;;;0.93;0.85;;;;;;;-2.34;75.71;95267.38;6084158;29;20123;-69
2023/12/25 03:34:22;;;;;;;0.68;0.68;;;;;;;-2.50;76.03;95261.16;6084304;29;20667;-67
2023/12/25 03:37:28;;;;;;;1.45;1.13;;;;;;;-2.42;75.55;95248.81;6101508;29;20052;-70
2023/12/25 03:40:33;;;;;;;1.27;1.10;;;;;;;-2.50;75.81;95248.28;6100629;29;20447;-68
2023/12/25 03:43:37;;;;;;;1.50;1.27;;;;;;;-2.68;76.32;95242.13;6100800;29;20196;-67
2023/12/25 03:46:41;;;;;;;1.65;1.38;;;;;;;-2.71;76.78;95237.94;6084205;29;20048;-68
2023/12/25 03:49:42;;;;;;;1.88;1.33;;;;;;;-2.74;76.95;95252.66;6100974;29;20091;-68
2023/12/25 03:52:46;;;;;;;2.33;1.50;;;;;;;-2.87;77.54;95272.03;6084027;29;20052;-68
2023/12/25 03:55:48;;;;;;;2.13;1.50;;;;;;;-2.86;77.77;95274.56;6100618;29;20067;-68
2023/12/25 03:58:54;;;;;;;2.35;0.90;;;;;;;-2.67;77.30;95273.84;6083650;29;20067;-68
2023/12/25 04:01:58;;;;;;;1.08;0.93;;;;;;;-2.74;76.97;95257.81;6101230;29;20060;-68
2023/12/25 04:05:02;;;;;;;1.40;1.20;;;;;;;-2.72;76.49;95277.44;6101092;29;20048;-68
2023/12/25 04:08:06;;;;;;;1.60;1.23;;;;;;;-2.75;76.85;95272.38;6100516;29;20059;-67
2023/12/25 04:11:18;;;;;;;1.50;1.17;;;;;;;-2.73;75.78;95280.06;6100869;29;20067;-68
2023/12/25 04:14:19;;;;;;;0.95;0.75;;;;;;;-2.86;76.10;95264.28;6100199;29;20048;-68
2023/12/25 04:17:23;;;;;;;1.17;0.90;;;;;;;-2.98;76.16;95275.00;6099986;29;20056;-67
2023/12/25 04:20:27;;;;;;;0.90;0.80;;;;;;;-2.95;76.06;95282.59;6083401;29;20522;-68
2023/12/25 04:23:28;;;;;;;;;;;;;;;-2.87;76.02;95288.31;6100759;29;20048;-69
2023/12/25 04:26:31;;;;;;;1.40;1.02;;;;;;;-2.94;76.27;95277.41;6100829;29;20393;-68
2023/12/25 04:29:33;;;;;;;1.88;0.60;;;;;;;-2.89;75.87;95279.78;6099901;29;20151;-68
2023/12/25 04:32:34;;;;;;;1.10;1.00;;;;;;;-2.98;76.36;95295.59;6100147;29;20048;-68
2023/12/25 04:35:38;;;;;;;2.08;0.50;;;;;;;-2.97;76.58;95297.28;6100339;29;20044;-68
2023/12/25 04:38:44;;;;;;;0.80;0.80;;;;;;;-3.04;77.00;95291.50;6099392;29;20531;-68
2023/12/25 04:41:46;;;;;;;1.65;1.10;;;;;;;-2.98;76.61;95317.00;6099421;29;20052;-70
2023/12/25 04:44:51;;;;;;;0.75;0.50;;;;;;;-2.83;76.15;95301.91;6099778;29;20128;-68
2023/12/25 04:47:55;;;;;;;0.40;0.40;;;;;;;-2.89;76.64;95300.38;6100201;29;20410;-68
2023/12/25 04:50:57;;;;;;;1.02;0.80;;;;;;;-2.75;76.17;95305.03;6099367;29;20150;-69
2023/12/25 04:54:02;;;;;;;1.15;0.70;;;;;;;-2.65;75.38;95308.09;6099544;29;20047;-68
2023/12/25 04:57:07;;;;;;;1.02;0.65;;;;;;;-2.75;75.92;95292.97;6099858;29;20422;-69
2023/12/25 05:00:10;;;;;;;0.90;0.50;;;;;;;-2.72;76.17;95303.19;6099108;29;20207;-69
2023/12/25 05:03:11;;;;;;;0.63;0.50;;;;;;;-2.71;76.22;95304.84;6099082;29;20465;-69
2023/12/25 05:06:14;;;;;;;0.50;0.40;;;;;;;-2.69;76.05;95296.22;6099139;29;20051;-68
2023/12/25 05:09:19;;;;;;;2.40;1.00;;;;;;;-2.73;75.98;95301.50;6099890;29;20093;-68
2023/12/25 05:12:25;;;;;;;1.70;1.08;;;;;;;-2.79;76.81;95286.28;6099731;29;20047;-68
2023/12/25 05:15:28;;;;;;;1.42;1.17;;;;;;;-2.67;76.19;95300.41;6099285;29;20064;-69
2023/12/25 05:18:31;;;;;;;1.15;0.95;;;;;;;-2.74;76.70;95304.97;6099746;29;20127;-67
2023/12/25 05:21:35;;;;;;;2.20;1.27;;;;;;;-2.50;76.27;95297.19;6101274;29;20052;-68
2023/12/25 05:24:36;;;;;;;1.30;0.70;;;;;;;-2.65;76.40;95297.81;6089907;29;20534;-68
2023/12/25 05:27:42;;;;;;;1.25;0.93;;;;;;;-2.73;76.82;95280.91;6107562;29;20043;-68
2023/12/25 05:30:47;;;;;;;1.42;0.93;;;;;;;-2.37;75.63;95303.56;6106786;29;20067;-68
2023/12/25 05:33:53;;;;;;;1.75;0.93;;;;;;;-2.49;75.88;95299.72;6107693;29;20048;-68
2023/12/25 05:36:57;;;;;;;2.28;1.30;;;;;;;-2.50;76.31;95304.94;6107497;29;20081;-68
2023/12/25 05:40:04;;;;;;;1.70;1.25;;;;;;;-2.50;76.60;95302.34;6107330;29;20052;-68
2023/12/25 05:43:10;;;;;;;1.80;1.08;;;;;;;-2.34;75.68;95323.22;6089346;29;20052;-68
2023/12/25 05:46:12;;;;;;;1.75;1.20;;;;;;;-2.20;75.14;95304.63;6107250;29;20130;-69
2023/12/25 05:49:16;;;;;;;1.73;1.40;;;;;;;-2.20;75.33;95304.63;6107411;29;20623;-68
2023/12/25 05:52:21;;;;;;;2.38;1.33;;;;;;;-2.27;75.56;95315.16;6107363;29;20052;-68
2023/12/25 05:55:25;;;;;;;1.80;0.98;;;;;;;-2.06;74.54;95312.66;6089563;29;20414;-67
2023/12/25 05:58:29;;;;;;;2.15;1.45;;;;;;;-2.00;74.27;95285.78;6107157;29;20149;-70
2023/12/25 06:01:31;;;;;;;2.42;1.42;;;;;;;-2.23;74.62;95294.44;6106372;29;20052;-68
2023/12/25 06:04:35;;;;;;;1.63;1.25;;;;;;;-2.24;75.04;95305.63;6106999;29;20052;-68
2023/12/25 06:07:39;;;;;;;1.42;1.20;;;;;;;-2.06;74.81;95317.81;6106601;29;20048;-67
2023/12/25 06:10:45;;;;;;;1.92;1.67;;;;;;;-2.06;74.82;95328.94;6107313;29;20048;-68
2023/12/25 06:13:51;;;;;;;2.78;1.92;;;;;;;-2.06;74.72;95297.19;6106988;29;20146;-69
2023/12/25 06:16:52;;;;;;;1.60;1.10;;;;;;;-1.91;74.92;95293.97;6106229;29;20048;-68
2023/12/25 06:20:15;;;;;;;2.67;1.70;;;;;;;-2.07;74.89;95308.38;6106716;29;20100;-69
2023/12/25 06:23:19;;;;;;;2.15;1.35;;;;;;;-1.94;74.70;95291.53;6106760;29;20365;-67
2023/12/25 06:26:23;;;;;;;1.50;1.17;;;;;;;-1.79;74.78;95289.22;6106075;29;20393;-68
2023/12/25 06:29:28;;;;;;;2.65;2.03;;;;;;;-1.88;74.98;95306.72;6106923;29;20051;-68
2023/12/25 06:32:32;;;;;;;2.05;1.13;;;;;;;-1.79;74.75;95304.69;6106057;29;20048;-67
2023/12/25 06:35:39;;;;;;;2.97;1.13;;;;;;;-1.66;73.94;95282.63;6102319;29;20052;-68
2023/12/25 06:38:42;;;;;;;2.35;1.80;;;;;;;-1.64;73.45;95298.91;6102872;29;20052;-68
2023/12/25 06:41:44;;;;;;;1.17;1.08;;;;;;;-1.46;74.16;95287.78;6102227;29;20650;-68
2023/12/25 06:44:49;;;;;;;2.80;1.70;;;;;;;-1.41;73.38;95270.38;6102187;29;20560;-68
2023/12/25 06:47:52;;;;;;;4.32;2.35;;;;;;;-1.24;72.43;95281.69;6102575;29;20064;-68
2023/12/25 06:50:54;;;;;;;3.47;1.35;;;;;;;-1.14;72.43;95277.78;6101770;29;20051;-68
2023/12/25 06:53:56;;;;;;;2.05;1.50;;;;;;;-1.22;72.09;95288.47;6101699;29;20128;-68
2023/12/25 06:56:57;;;;;;;2.78;1.45;;;;;;;-1.26;72.69;95279.16;6102111;29;20040;-69
2023/12/25 07:00:02;;;;;;;2.75;1.90;;;;;;;-1.31;72.33;95269.97;6101661;29;20063;-69
2023/12/25 07:03:12;;;;;;;4.10;1.60;;;;;;;-1.33;72.54;95271.75;6102282;29;20173;-69
2023/12/25 07:06:16;;;;;;;3.17;1.80;;;;;;;-1.18;73.15;95281.41;6102340;29;20044;-68
2023/12/25 07:09:21;;;;;;;3.05;2.13;;;;;;;-1.25;72.75;95275.66;6101179;29;20068;-69
2023/12/25 07:12:26;;;;;;;3.33;1.92;;;;;;;-1.19;72.35;95274.56;6101856;29;20048;-69
2023/12/25 07:15:29;;;;;;;2.78;1.92;;;;;;;-1.52;72.57;95239.03;6101377;29;20048;-69
2023/12/25 07:18:36;;;;;;;3.83;2.50;;;;;;;-1.36;72.87;95283.91;6101503;29;20048;-69
2023/12/25 07:21:37;;;;;;;5.07;2.35;;;;;;;-1.26;73.26;95293.81;6101542;29;20052;-69
2023/12/25 07:24:41;;;;;;;2.35;2.10;;;;;;;-1.22;73.41;95292.75;6101520;29;20044;-68
2023/12/25 07:27:52;;;;;;;3.40;2.38;;;;;;;-1.04;72.88;95299.72;6102147;29;20052;-69
2023/12/25 07:30:53;;;;;;;3.70;2.17;;;;;;;-0.99;73.06;95299.50;6101123;29;20048;-68
2023/12/25 07:33:55;;;;;;;2.33;1.88;;;;;;;-0.94;72.68;95305.28;6101062;29;20048;-69
2023/12/25 07:37:02;;;;;;;4.55;2.60;;;;;;;-1.04;73.00;95304.88;6101676;29;20188;-68
2023/12/25 07:40:06;;;;;;;3.33;2.70;;;;;;;-0.86;72.68;95317.88;6101994;29;20051;-68
2023/12/25 07:43:10;;;;;;;3.67;2.30;;;;;;;-0.86;73.24;95317.88;6101021;29;20063;-69
2023/12/25 07:46:16;;;;;;;3.05;2.13;;;;;;;-0.76;72.37;95293.31;6100993;29;20044;-68
2023/12/25 07:49:24;;;;;;;2.85;2.38;;;;;;;-0.89;72.48;95297.34;6101402;29;20092;-68
2023/12/25 07:52:28;;;;;;;3.97;2.60;;;;;;;-1.08;73.18;95295.56;6100656;29;20036;-68
2023/12/25 07:55:38;;;;;;;2.83;2.22;;;;;;;-1.18;73.58;95276.25;6084975;29;20040;-69
2023/12/25 07:58:47;;;;;;;5.13;2.88;;;;;;;-0.87;72.63;95295.53;6101293;29;20059;-69
2023/12/25 08:01:55;;;;;;;2.65;1.90;;;;;;;-1.05;72.97;95298.00;6101168;29;20064;-68
2023/12/25 08:05:02;;;;;;;4.25;2.95;;;;;;;-1.02;72.47;95292.75;6101218;29;20044;-69
2023/12/25 08:08:10;;;;;;;4.00;2.78;;;;;;;-1.03;73.69;95303.97;6084888;29;20054;-68
2023/12/25 08:11:20;;;;;;;3.10;2.38;;;;;;;-1.00;73.18;95311.56;6101070;29;20052;-68
2023/12/25 08:14:29;;;;;;;5.55;2.88;;;;;;;-0.94;73.27;95310.44;6101225;29;20502;-68
2023/12/25 08:17:31;;;;;;;3.38;2.13;;;;;;;-0.87;73.33;95300.72;6083641;29;20092;-69
2023/12/25 08:20:34;;;;;;;;;;;;;;;-0.76;73.32;95316.56;6101100;29;20044;-68
2023/12/25 08:23:40;;;;;;;3.83;2.05;;;;;;;-0.76;73.75;95316.56;6083890;29;19929;-69
2023/12/25 08:26:45;;;;;;;3.58;2.92;;;;;;;-0.82;73.86;95306.47;6100653;29;20135;-69
2023/12/25 08:29:50;;;;;;;4.25;2.70;;;;;;;-0.78;74.69;95301.13;6099917;29;20524;-69
2023/12/25 08:32:51;;;;;;;4.50;3.22;;;;;;;-0.77;74.25;95296.78;6099672;29;20052;-68
2023/12/25 08:35:53;;;;;;;4.97;3.15;;;;;;;-0.66;73.82;95302.28;6082796;29;20048;-68
2023/12/25 08:38:58;;;;;;;2.15;1.75;;;;;;;-0.63;73.81;95298.75;6099255;29;20438;-68
2023/12/25 08:42:05;;;;;;;3.97;2.92;;;;;;;-0.72;74.43;95300.00;6100962;29;20482;-67
2023/12/25 08:45:07;;;;;;;4.00;2.97;;;;;;;-0.67;74.12;95287.72;6099722;29;20048;-68
2023/12/25 08:48:11;;;;;;;3.38;2.22;;;;;;;-0.55;74.14;95294.88;6100300;29;20055;-68
2023/12/25 08:51:15;;;;;;;4.82;2.90;;;;;;;-0.49;73.81;95286.84;6099545;29;20063;-68
2023/12/25 08:54:21;;;;;;;3.33;1.92;;;;;;;-0.57;74.24;95268.28;6099754;29;20040;-69
2023/12/25 08:57:23;;;;;;;7.20;4.00;;;;;;;-0.58;73.97;95276.94;6098617;29;20059;-69
2023/12/25 09:00:27;;;;;;;5.47;3.63;;;;;;;-0.58;73.75;95271.78;6099285;29;20052;-70
2023/12/25 09:03:30;;;;;;;5.63;3.40;;;;;;;-0.57;74.38;95283.78;6099749;29;20557;-68
2023/12/25 09:06:34;;;;;;;5.95;3.17;;;;;;;-0.58;74.16;95273.53;6100112;29;20048;-69
2023/12/25 09:09:36;;;;;;;3.63;1.90;;;;;;;-0.49;73.97;95260.19;6099161;29;20059;-69
2023/12/25 09:12:38;;;;;;;4.05;2.60;;;;;;;-0.39;73.38;95266.59;6098896;29;20511;-69
2023/12/25 09:15:40;;;;;;;5.40;3.15;;;;;;;-0.64;74.10;95266.91;6099487;29;20529;-68
2023/12/25 09:18:41;;;;;;;4.60;3.28;;;;;;;-0.75;74.75;95263.97;6082255;29;20052;-69
2023/12/25 09:21:47;;;;;;;3.05;2.08;;;;;;;-0.57;75.52;95254.53;6099975;29;20104;-70
2023/12/25 09:24:51;;;;;;;4.82;3.42;;;;;;;-0.48;74.05;95247.19;6099825;29;20052;-68
2023/12/25 09:27:54;;;;;;;5.70;3.70;;;;;;;-0.65;74.49;95251.47;6099259;29;20539;-69
2023/12/25 09:30:57;;;;;;;5.80;3.38;;;;;;;-0.59;74.84;95253.78;6098913;29;20048;-68
2023/12/25 09:34:06;;;;;;;6.57;3.78;;;;;;;-0.68;74.35;95255.88;6099802;29;20048;-69
2023/12/25 09:37:10;;;;;;;5.38;3.42;;;;;;;-0.87;74.78;95249.06;6098994;29;20077;-69
2023/12/25 09:40:17;;;;;;;6.35;3.65;;;;;;;-0.69;74.81;95243.88;6098838;29;20060;-69
2023/12/25 09:43:23;;;;;;;5.43;3.45;;;;;;;-0.79;75.36;95252.09;6098870;29;20044;-70
2023/12/25 09:46:29;;;;;;;7.38;4.50;;;;;;;-0.80;75.25;95240.13;6098658;29;20091;-70
2023/12/25 09:49:34;;;;;;;3.67;2.55;;;;;;;-0.70;75.27;95233.63;6098721;29;20054;-70
2023/12/25 09:52:39;;;;;;;5.68;3.60;;;;;;;-0.74;75.13;95225.16;6098360;29;20130;-68
2023/12/25 09:55:44;;;;;;;4.90;3.53;;;;;;;-0.70;75.06;95233.63;6099139;29;20056;-69
2023/12/25 09:58:47;;;;;;;8.60;4.18;;;;;;;-0.73;75.18;95226.03;6098198;29;20056;-69
2023/12/25 10:01:52;;;;;;;3.88;2.92;;;;;;;-0.75;75.74;95217.50;6098377;29;20052;-68
2023/12/25 10:04:58;;;;;;;6.97;4.68;;;;;;;-0.95;76.11;95227.00;6082421;29;20056;-69
2023/12/25 10:08:02;;;;;;;6.47;4.00;;;;;;;-0.98;75.44;95221.97;6100370;29;20052;-69
2023/12/25 10:11:08;;;;;;;8.77;4.43;;;;;;;-1.15;76.60;95224.50;6103005;29;20052;-69
2023/12/25 10:14:10;;;;;;;8.10;5.47;;;;;;;-0.99;76.42;95225.47;6103142;29;20056;-69
2023/12/25 10:17:12;;;;;;;3.47;3.08;;;;;;;-1.07;76.37;95219.84;6102775;29;20066;-68
2023/12/25 10:20:22;;;;;;;7.97;5.28;;;;;;;-1.29;76.31;95201.06;6102323;29;20063;-69
2023/12/25 10:23:31;;;;;;;9.98;5.35;;;;;;;-1.21;76.92;95209.28;6103251;29;20138;-69
2023/12/25 10:26:36;;;;;;;6.97;4.80;;;;;;;-1.28;77.64;95219.03;6102522;29;20514;-70
2023/12/25 10:29:42;;;;;;;8.82;5.15;;;;;;;-1.24;77.35;95217.19;6103222;29;20052;-69
2023/12/25 10:32:50;;;;;;;8.35;4.10;;;;;;;-1.11;76.64;95220.88;6103240;29;20052;-69
2023/12/25 10:36:06;;;;;;;8.00;4.97;;;;;;;-1.15;76.92;95212.44;6102601;29;20044;-69
2023/12/25 10:39:11;;;;;;;4.38;3.03;;;;;;;-1.18;76.39;95193.66;6103000;29;20056;-69
2023/12/25 10:42:17;;;;;;;9.10;4.78;;;;;;;-1.23;76.88;95185.28;6102445;29;20570;-68
2023/12/25 10:45:23;;;;;;;9.07;5.40;;;;;;;-1.24;76.81;95175.91;6103083;29;20040;-69
2023/12/25 10:48:30;;;;;;;7.60;4.78;;;;;;;-1.43;77.80;95176.72;6102905;29;20052;-69
2023/12/25 10:51:40;;;;;;;7.63;4.28;;;;;;;-1.22;77.18;95179.22;6103196;29;20073;-69
2023/12/25 10:54:46;;;;;;;8.18;4.43;;;;;;;-1.16;77.30;95181.50;6102774;29;20059;-71
2023/12/25 10:57:52;;;;;;;5.65;3.75;;;;;;;-1.31;77.48;95175.31;6102658;29;20040;-69
2023/12/25 11:00:57;;;;;;;7.93;3.72;;;;;;;-1.31;77.23;95182.22;6085291;29;20506;-70
2023/12/25 11:04:02;;;;;;;6.93;4.38;;;;;;;-1.29;76.87;95185.59;6101910;29;20079;-70
2023/12/25 11:07:07;;;;;;;5.80;4.25;;;;;;;-1.34;76.95;95193.53;6101705;29;20495;-69
2023/12/25 11:10:13;;;;;;;7.18;4.70;;;;;;;-1.39;77.55;95190.31;6102518;29;20052;-69
2023/12/25 11:13:15;;;;;;;8.43;4.72;;;;;;;-1.51;77.32;95191.69;6101622;29;20056;-69
2023/12/25 11:16:21;;;;;;;;;;;;;;;-1.32;77.71;95201.19;6102608;29;20126;-69
2023/12/25 11:19:25;;;;;;;5.90;4.40;;;;;;;-1.39;77.53;95191.16;6101234;29;19923;-68
2023/12/25 11:22:36;;;;;;;5.72;4.30;;;;;;;-1.51;77.94;95191.69;6085184;29;20047;-69
2023/12/25 11:25:40;;;;;;;8.25;5.07;;;;;;;-1.54;77.84;95176.34;6101472;29;20052;-69
2023/12/25 11:28:43;;;;;;;6.65;3.95;;;;;;;-1.38;77.41;95186.84;6101239;29;20526;-70
2023/12/25 11:31:52;;;;;;;6.43;4.43;;;;;;;-1.27;76.99;95188.94;6100874;29;20154;-69
2023/12/25 11:34:56;;;;;;;7.22;4.57;;;;;;;-1.39;77.23;95191.16;6101169;29;20060;-69
2023/12/25 11:38:18;;;;;;;7.75;4.43;;;;;;;-1.25;77.18;95187.09;6101581;29;20491;-69
2023/12/25 11:41:20;;;;;;;8.13;5.15;;;;;;;-1.50;77.46;95172.75;6100946;29;20300;-69
2023/12/25 11:44:34;;;;;;;6.70;4.65;;;;;;;-1.52;77.95;95168.56;6100850;29;20138;-68
2023/12/25 11:47:44;;;;;;;9.52;5.20;;;;;;;-1.63;78.61;95150.97;6100905;29;20058;-70
2023/12/25 11:50:59;;;;;;;8.93;4.93;;;;;;;-1.59;78.08;95139.59;6101498;29;20040;-69
2023/12/25 11:54:03;;;;;;;8.93;5.63;;;;;;;-1.43;78.05;95140.59;6084125;29;20052;-68
2023/12/25 11:57:17;;;;;;;5.85;4.20;;;;;;;-1.54;77.80;95129.94;6101016;29;20044;-69
2023/12/25 12:00:22;;;;;;;7.05;4.53;;;;;;;-1.38;77.58;95130.91;6101270;29;20052;-68
2023/12/25 12:03:27;;;;;;;8.38;3.92;;;;;;;-1.43;77.54;95129.44;6101049;29;20640;-68
2023/12/25 12:06:30;;;;;;;8.90;5.85;;;;;;;-1.54;77.90;95124.78;6100317;29;20044;-67
2023/12/25 12:09:34;;;;;;;8.85;5.25;;;;;;;-1.46;78.39;95125.25;6100203;29;20055;-69
2023/12/25 12:12:39;;;;;;;15.63;8.82;;;;;;;-1.52;78.16;95112.66;6100420;29;20418;-68
2023/12/25 12:15:45;;;;;;;9.90;6.18;;;;;;;-1.54;78.13;95108.47;6100949;29;20044;-69
2023/12/25 12:18:51;;;;;;;9.85;6.00;;;;;;;-1.45;78.31;95098.53;6100025;29;20060;-68
2023/12/25 12:22:00;;;;;;;9.98;5.97;;;;;;;-1.55;78.80;95105.06;6100282;29;20040;-69
2023/12/25 12:25:14;;;;;;;7.80;5.15;;;;;;;-1.43;78.21;95107.06;6099832;29;20052;-68
2023/12/25 12:28:19;;;;;;;10.13;6.45;;;;;;;-1.52;78.21;95107.50;6083964;29;20048;-69
2023/12/25 12:31:20;;;;;;;7.93;4.38;;;;;;;-1.46;78.39;95096.88;6100068;29;20538;-67
2023/12/25 12:34:25;;;;;;;9.93;5.00;;;;;;;-1.43;78.22;95083.00;6100337;29;20096;-68
2023/12/25 12:37:26;;;;;;;11.35;6.07;;;;;;;-1.45;77.83;95083.06;6099882;29;20059;-69
2023/12/25 12:40:32;;;;;;;8.52;5.60;;;;;;;-1.45;78.14;95082.22;6100205;29;20043;-68
2023/12/25 12:43:34;;;;;;;7.50;4.95;;;;;;;-1.52;79.04;95065.38;6099313;29;20056;-69
2023/12/25 12:46:38;;;;;;;12.20;6.70;;;;;;;-1.46;78.72;95055.59;6099883;29;20040;-69
2023/12/25 12:49:47;;;;;;;11.10;6.80;;;;;;;-1.48;78.48;95043.69;6100274;29;20044;-69
2023/12/25 12:52:51;;;;;;;12.63;7.10;;;;;;;-1.62;78.65;95034.00;6100095;29;20048;-69
2023/12/25 12:55:58;;;;;;;10.95;5.88;;;;;;;-1.46;78.77;95034.16;6100135;29;20454;-68
2023/12/25 12:59:02;;;;;;;11.30;6.18;;;;;;;-1.47;78.65;95019.56;6099772;29;20528;-68
2023/12/25 13:02:06;;;;;;;10.35;6.32;;;;;;;-1.41;78.62;95027.84;6099685;29;20060;-69
2023/12/25 13:05:08;;;;;;;13.27;6.97;;;;;;;-1.44;79.00;95017.69;6099565;29;20048;-69
2023/12/25 13:08:11;;;;;;;14.75;8.05;;;;;;;-1.44;78.53;95017.69;6099204;29;20055;-69
2023/12/25 13:11:18;;;;;;;13.13;7.28;;;;;;;-1.43;79.58;95024.50;6099454;29;20087;-68
2023/12/25 13:14:21;;;;;;;12.63;7.03;;;;;;;-1.27;78.98;95018.63;6099583;29;20044;-69
2023/12/25 13:17:27;;;;;;;11.18;6.75;;;;;;;-1.31;78.79;95022.25;6099735;29;20048;-69
2023/12/25 13:20:28;;;;;;;13.25;7.82;;;;;;;-1.40;78.36;95016.63;6098987;29;20438;-68
2023/12/25 13:23:34;;;;;;;;;;;;;;;-1.30;78.67;95018.75;6099809;29;20040;-68
2023/12/25 13:26:38;;;;;;;9.68;6.00;;;;;;;-1.38;78.44;95032.03;6082467;29;20317;-70
2023/12/25 13:29:43;;;;;;;10.80;6.78;;;;;;;-1.27;78.33;95028.97;6082446;29;20056;-69
2023/12/25 13:32:46;;;;;;;9.38;5.25;;;;;;;-1.38;78.61;95021.72;6099707;29;20040;-69
2023/12/25 13:35:49;;;;;;;10.05;5.45;;;;;;;-1.42;78.54;95015.84;6099559;29;20047;-68
2023/12/25 13:38:55;;;;;;;9.00;5.97;;;;;;;-1.27;78.43;95018.63;6082743;29;20052;-69
2023/12/25 13:41:59;;;;;;;10.65;6.00;;;;;;;-1.34;78.44;95007.75;6099768;29;20044;-71
2023/12/25 13:45:02;;;;;;;10.63;5.88;;;;;;;-1.42;78.45;95004.69;6103654;29;20040;-70
2023/12/25 13:48:12;;;;;;;10.38;5.97;;;;;;;-1.44;79.07;95004.78;6104261;29;20048;-70
2023/12/25 13:51:14;;;;;;;9.73;6.30;;;;;;;-1.45;79.24;95000.53;6103927;29;20047;-70
2023/12/25 13:54:16;;;;;;;8.25;4.63;;;;;;;-1.43;79.18;95009.03;6071282;29;20523;-71
2023/12/25 13:57:22;;;;;;;10.68;5.57;;;;;;;-1.43;79.03;94997.88;6103620;29;20542;-70
2023/12/25 14:00:23;;;;;;;10.00;4.97;;;;;;;-1.43;78.65;94998.72;6103022;29;20062;-68
2023/12/25 14:03:27;;;;;;;10.07;5.55;;;;;;;-1.40;78.75;94990.81;6103340;29;20086;-69
2023/12/25 14:06:31;;;;;;;10.48;6.40;;;;;;;-1.34;79.10;94994.84;6103871;29;20043;-69
2023/12/25 14:09:33;;;;;;;8.00;5.18;;;;;;;-1.24;78.07;94988.34;6103450;29;20032;-68
2023/12/25 14:12:38;;;;;;;12.88;6.78;;;;;;;-1.21;77.93;94992.53;6102527;29;20063;-69
2023/12/25 14:15:44;;;;;;;10.13;5.20;;;;;;;-1.28;78.53;94993.72;6102854;29;20188;-69
2023/12/25 14:18:48;;;;;;;11.65;6.97;;;;;;;-1.40;78.99;94995.97;6086667;29;20632;-68
2023/12/25 14:21:53;;;;;;;13.15;7.55;;;;;;;-1.37;79.47;94993.25;6103022;29;20044;-69
2023/12/25 14:24:57;;;;;;;14.13;7.78;;;;;;;-1.38;79.41;94976.13;6103124;29;20199;-69
2023/12/25 14:28:02;;;;;;;13.90;7.43;;;;;;;-1.30;79.41;94972.31;6086425;29;20047;-70
2023/12/25 14:31:07;;;;;;;15.98;8.18;;;;;;;-1.28;79.23;94955.84;6086578;29;20130;-68